Time;durP1;ratioP1;P1;durP2;ratioP2;P2;SDS_P1;SDS_P2;PMS_P1;PMS_P2;Temp;Humidity;BMP_temperature;BMP_pressure;BME280_temperature;BME280_humidity;BME280_pressure;Samples;Min_cycle;Max_cycle;Signal;HPM_P1;HPM_P2
2022/03/11 00:01:50;;;;;;;15.40;8.70;;;9.60;46.10;;;;;;5025583;28;20029;-66
2022/03/11 00:04:15;;;;;;;16.02;9.20;;;9.60;46.20;;;;;;5010242;28;20062;-66
2022/03/11 00:06:41;;;;;;;15.13;9.65;;;9.60;46.20;;;;;;5028277;28;20025;-66
2022/03/11 00:09:06;;;;;;;14.45;9.15;;;9.60;46.30;;;;;;5028485;28;20044;-66
2022/03/11 00:11:32;;;;;;;13.90;8.68;;;9.50;46.30;;;;;;5028123;28;20112;-66
2022/03/11 00:13:57;;;;;;;12.77;8.35;;;9.50;46.20;;;;;;5027892;28;20163;-66
2022/03/11 00:16:23;;;;;;;12.20;8.30;;;9.50;46.20;;;;;;5027960;28;20037;-66
2022/03/11 00:18:49;;;;;;;15.90;9.23;;;9.50;46.10;;;;;;5025425;28;20083;-66
2022/03/11 00:21:15;;;;;;;13.48;8.18;;;9.50;46.20;;;;;;5022473;28;20543;-66
2022/03/11 00:23:42;;;;;;;15.07;8.85;;;9.50;46.20;;;;;;5028091;28;20045;-66
2022/03/11 00:26:08;;;;;;;17.98;9.05;;;9.40;46.30;;;;;;5022500;28;20079;-66
2022/03/11 00:28:33;;;;;;;11.98;7.65;;;9.40;46.30;;;;;;5025403;28;20025;-66
2022/03/11 00:30:59;;;;;;;11.63;8.05;;;9.40;46.20;;;;;;5022577;28;20021;-66
2022/03/11 00:33:24;;;;;;;13.25;8.73;;;9.40;46.30;;;;;;5027751;28;20021;-66
2022/03/11 00:35:50;;;;;;;12.65;9.27;;;9.40;46.20;;;;;;5027960;28;20112;-66
2022/03/11 00:38:15;;;;;;;14.02;8.90;;;9.40;46.30;;;;;;5027742;28;20029;-66
2022/03/11 00:40:41;;;;;;;14.75;8.43;;;9.40;46.10;;;;;;5027945;28;20033;-66
2022/03/11 00:43:07;;;;;;;13.45;8.27;;;9.40;46.20;;;;;;5022865;28;20159;-66
2022/03/11 00:45:32;;;;;;;12.63;8.20;;;9.40;46.10;;;;;;5027661;28;20084;-66
2022/03/11 00:47:58;;;;;;;12.73;7.55;;;9.40;46.10;;;;;;5025138;28;20030;-66
2022/03/11 00:50:24;;;;;;;11.90;8.40;;;9.40;46.10;;;;;;5028088;28;20447;-64
2022/03/11 00:52:49;;;;;;;11.88;7.38;;;9.30;46.00;;;;;;5030612;28;20029;-66
2022/03/11 00:55:15;;;;;;;14.82;7.85;;;9.40;46.60;;;;;;5031578;28;20483;-66
2022/03/11 00:57:40;;;;;;;11.73;6.95;;;9.40;46.10;;;;;;5031757;28;20376;-66
2022/03/11 01:00:07;;;;;;;10.73;6.63;;;9.40;46.10;;;;;;5028853;28;20112;-66
2022/03/11 01:02:35;;;;;;;10.98;7.35;;;9.40;46.00;;;;;;5031654;28;20029;-65
2022/03/11 01:05:01;;;;;;;10.35;6.88;;;9.30;46.00;;;;;;5029051;28;20025;-66
2022/03/11 01:07:27;;;;;;;12.30;8.88;;;9.30;46.00;;;;;;5032299;28;20064;-65
2022/03/11 01:09:52;;;;;;;12.55;8.05;;;9.30;45.80;;;;;;5013712;28;20061;-66
2022/03/11 01:12:18;;;;;;;11.95;8.35;;;9.30;45.80;;;;;;5028442;28;20033;-66
2022/03/11 01:14:44;;;;;;;14.05;8.43;;;9.30;45.80;;;;;;5025829;28;20496;-66
2022/03/11 01:17:11;;;;;;;12.10;7.88;;;9.30;45.90;;;;;;5031646;28;20025;-66
2022/03/11 01:19:36;;;;;;;10.00;7.03;;;9.30;45.80;;;;;;5031144;28;20111;-66
2022/03/11 01:22:02;;;;;;;12.48;7.70;;;9.30;45.70;;;;;;5013302;28;20068;-66
2022/03/11 01:24:28;;;;;;;14.50;8.38;;;9.30;45.80;;;;;;5010745;28;20029;-66
2022/03/11 01:26:53;;;;;;;13.80;8.35;;;9.30;45.90;;;;;;5031250;28;20029;-65
2022/03/11 01:29:19;;;;;;;11.93;7.95;;;9.20;45.80;;;;;;5012998;28;20060;-66
2022/03/11 01:31:44;;;;;;;11.50;7.38;;;9.20;45.70;;;;;;5013357;28;20533;-66
2022/03/11 01:34:10;;;;;;;11.77;8.18;;;9.20;45.70;;;;;;5031119;28;20032;-66
2022/03/11 01:36:36;;;;;;;12.77;8.30;;;9.20;45.90;;;;;;5010176;28;20195;-66
2022/03/11 01:39:02;;;;;;;14.77;8.30;;;9.20;45.90;;;;;;5030897;28;20104;-65
2022/03/11 01:41:28;;;;;;;12.05;8.10;;;9.20;45.80;;;;;;5030979;28;20396;-66
2022/03/11 01:44:02;;;;;;;14.10;8.45;;;9.20;46.00;;;;;;5028316;28;20056;-65
2022/03/11 01:46:29;;;;;;;13.85;8.98;;;9.20;46.00;;;;;;5031065;28;20218;-66
2022/03/11 01:48:55;;;;;;;13.77;8.95;;;9.10;45.90;;;;;;5012930;28;20499;-66
2022/03/11 01:51:21;;;;;;;14.32;9.73;;;9.10;46.00;;;;;;5027940;28;20119;-66
2022/03/11 01:53:47;;;;;;;12.38;8.70;;;9.10;46.10;;;;;;5030766;28;20049;-68
2022/03/11 01:56:13;;;;;;;13.50;8.48;;;9.00;46.20;;;;;;5027862;28;20029;-68
2022/03/11 01:58:39;;;;;;;13.00;8.68;;;9.00;46.10;;;;;;5024994;28;20033;-68
2022/03/11 02:01:06;;;;;;;15.20;8.57;;;9.00;46.20;;;;;;5030286;28;20030;-66
2022/03/11 02:03:32;;;;;;;11.65;7.85;;;9.00;46.30;;;;;;5030370;28;20083;-66
2022/03/11 02:06:01;;;;;;;12.20;8.25;;;9.00;46.50;;;;;;5025166;28;20377;-66
2022/03/11 02:08:26;;;;;;;13.57;8.13;;;8.90;46.50;;;;;;5026402;28;20108;-66
2022/03/11 02:10:53;;;;;;;13.45;8.43;;;8.90;46.50;;;;;;5026713;28;20697;-66
2022/03/11 02:13:18;;;;;;;12.82;8.90;;;8.90;46.60;;;;;;5025011;28;20037;-66
2022/03/11 02:15:44;;;;;;;12.65;8.05;;;8.80;46.60;;;;;;5030345;28;20036;-66
2022/03/11 02:18:10;;;;;;;14.98;8.88;;;8.80;46.60;;;;;;5030628;28;20057;-66
2022/03/11 02:20:36;;;;;;;14.60;8.77;;;8.80;46.70;;;;;;5030219;28;20101;-66
2022/03/11 02:23:03;;;;;;;12.93;8.50;;;8.80;46.80;;;;;;5012307;28;20021;-66
2022/03/11 02:25:28;;;;;;;12.75;8.23;;;8.70;46.80;;;;;;5029987;28;20026;-65
2022/03/11 02:27:54;;;;;;;12.32;8.20;;;8.70;46.90;;;;;;5030173;28;20444;-66
2022/03/11 02:30:20;;;;;;;11.70;7.85;;;8.70;47.10;;;;;;5027178;28;20026;-66
2022/03/11 02:32:47;;;;;;;13.55;8.07;;;8.60;47.00;;;;;;5030200;28;20481;-66
2022/03/11 02:35:13;;;;;;;12.85;8.77;;;8.60;46.90;;;;;;5031169;28;20029;-66
2022/03/11 02:37:38;;;;;;;11.05;7.72;;;8.60;47.00;;;;;;5029952;28;20112;-66
2022/03/11 02:40:05;;;;;;;11.32;7.35;;;8.60;47.00;;;;;;5010658;28;20108;-66
2022/03/11 02:42:31;;;;;;;12.40;8.20;;;8.60;47.10;;;;;;5010777;28;20030;-66
2022/03/11 02:45:02;;;;;;;11.63;7.60;;;8.50;47.10;;;;;;5026963;28;20057;-66
2022/03/11 02:47:27;;;;;;;10.23;6.40;;;8.50;47.10;;;;;;5029776;28;20029;-66
2022/03/11 02:49:53;;;;;;;12.55;7.50;;;8.50;47.10;;;;;;5029972;28;20467;-66
2022/03/11 02:52:19;;;;;;;12.30;8.05;;;8.50;47.20;;;;;;5000975;28;20511;-66
2022/03/11 02:54:44;;;;;;;14.50;8.18;;;8.50;47.20;;;;;;5028471;28;20501;-66
2022/03/11 02:57:10;;;;;;;11.55;7.32;;;8.40;47.20;;;;;;5007692;28;20105;-66
2022/03/11 02:59:35;;;;;;;13.02;7.38;;;8.40;47.30;;;;;;5021452;28;20508;-66
2022/03/11 03:02:01;;;;;;;10.70;7.25;;;8.40;47.30;;;;;;5024242;28;20029;-66
2022/03/11 03:04:26;;;;;;;10.80;6.75;;;8.30;47.30;;;;;;5026770;28;20022;-66
2022/03/11 03:06:52;;;;;;;13.05;7.13;;;8.30;47.30;;;;;;5011545;28;20034;-66
2022/03/11 03:09:17;;;;;;;12.48;8.20;;;8.30;47.40;;;;;;5026430;28;20025;-66
2022/03/11 03:11:43;;;;;;;11.30;6.55;;;8.30;47.20;;;;;;5029387;28;20128;-66
2022/03/11 03:14:08;;;;;;;11.27;7.28;;;8.30;47.40;;;;;;5011403;28;20040;-66
2022/03/11 03:16:34;;;;;;;12.75;6.72;;;8.30;47.40;;;;;;5011512;28;20022;-66
2022/03/11 03:18:59;;;;;;;12.82;7.63;;;8.30;47.40;;;;;;5011162;28;20033;-66
2022/03/11 03:21:27;;;;;;;11.45;7.07;;;8.20;47.40;;;;;;5011024;28;20117;-66
2022/03/11 03:23:53;;;;;;;12.80;7.30;;;8.20;47.50;;;;;;5026321;28;20518;-66
2022/03/11 03:26:19;;;;;;;12.15;7.40;;;8.10;47.60;;;;;;5026288;28;20029;-66
2022/03/11 03:28:44;;;;;;;10.48;7.15;;;8.10;47.60;;;;;;5026470;28;20366;-66
2022/03/11 03:31:10;;;;;;;11.88;7.55;;;8.20;47.80;;;;;;5011121;28;20077;-64
2022/03/11 03:33:36;;;;;;;11.57;6.82;;;8.20;47.70;;;;;;5028888;28;20105;-65
2022/03/11 03:36:01;;;;;;;10.82;7.40;;;8.10;47.80;;;;;;5026152;28;20030;-66
2022/03/11 03:38:27;;;;;;;13.88;7.38;;;8.10;48.10;;;;;;5026038;28;20025;-66
2022/03/11 03:40:52;;;;;;;12.13;7.30;;;8.00;47.90;;;;;;5010979;28;20037;-66
2022/03/11 03:43:18;;;;;;;10.20;7.10;;;8.10;48.00;;;;;;5028422;28;20404;-66
2022/03/11 03:45:44;;;;;;;11.15;7.05;;;8.00;48.20;;;;;;5025947;28;20029;-66
2022/03/11 03:48:09;;;;;;;12.73;7.22;;;8.00;48.10;;;;;;5028768;28;20021;-66
2022/03/11 03:50:35;;;;;;;9.23;5.97;;;8.00;48.10;;;;;;5028220;28;20551;-66
2022/03/11 03:53:00;;;;;;;11.63;7.85;;;8.00;48.10;;;;;;5010921;28;20489;-66
2022/03/11 03:55:26;;;;;;;11.82;7.65;;;7.90;48.30;;;;;;5010651;28;20033;-65
2022/03/11 03:57:52;;;;;;;13.57;7.57;;;7.90;48.50;;;;;;5025848;28;20036;-66
2022/03/11 04:00:17;;;;;;;11.52;6.90;;;7.90;49.30;;;;;;5028182;28;20055;-65
2022/03/11 04:02:47;;;;;;;11.77;8.00;;;7.90;48.80;;;;;;5026160;28;20482;-64
2022/03/11 04:05:13;;;;;;;11.85;7.28;;;7.80;49.00;;;;;;5025642;28;20040;-66
2022/03/11 04:07:43;;;;;;;11.82;7.05;;;7.80;49.30;;;;;;5027903;28;20549;-66
2022/03/11 04:10:09;;;;;;;;;;;7.70;49.40;;;;;;5025991;28;20463;-66
2022/03/11 04:12:34;;;;;;;10.82;6.97;;;7.70;49.60;;;;;;5025332;28;20004;-65
2022/03/11 04:14:59;;;;;;;12.73;7.40;;;7.60;49.80;;;;;;5028135;28;20013;-66
2022/03/11 04:17:25;;;;;;;13.98;6.90;;;7.60;49.90;;;;;;5028171;28;20029;-65
2022/03/11 04:19:51;;;;;;;9.68;6.82;;;7.60;50.10;;;;;;5025558;28;20471;-65
2022/03/11 04:22:16;;;;;;;12.32;7.75;;;7.60;50.20;;;;;;5015684;28;20456;-66
2022/03/11 04:24:42;;;;;;;12.00;7.05;;;7.60;50.50;;;;;;5027708;28;20080;-68
2022/03/11 04:27:08;;;;;;;13.25;7.88;;;7.50;50.30;;;;;;5027926;28;20033;-66
2022/03/11 04:29:34;;;;;;;12.35;7.60;;;7.50;50.60;;;;;;5025503;28;20505;-66
2022/03/11 04:32:00;;;;;;;12.90;7.78;;;7.50;50.70;;;;;;5025407;28;20028;-65
2022/03/11 04:34:26;;;;;;;14.13;8.65;;;7.50;51.00;;;;;;5026683;28;20024;-65
2022/03/11 04:36:51;;;;;;;13.10;7.25;;;7.40;51.10;;;;;;5026876;28;20477;-64
2022/03/11 04:39:17;;;;;;;10.95;7.65;;;7.40;51.30;;;;;;5022352;28;20025;-64
2022/03/11 04:41:44;;;;;;;14.35;8.10;;;7.40;51.50;;;;;;5025345;28;20030;-66
2022/03/11 04:44:10;;;;;;;13.15;8.35;;;7.30;51.60;;;;;;5010229;28;20025;-65
2022/03/11 04:46:35;;;;;;;13.45;8.45;;;7.30;51.90;;;;;;5027575;28;20144;-65
2022/03/11 04:49:01;;;;;;;13.63;7.55;;;7.30;52.00;;;;;;5023137;28;20132;-65
2022/03/11 04:51:26;;;;;;;12.60;7.55;;;7.20;52.10;;;;;;5027766;28;20054;-65
2022/03/11 04:53:53;;;;;;;14.10;9.65;;;7.20;52.30;;;;;;5027888;28;20496;-65
2022/03/11 04:56:19;;;;;;;14.95;8.45;;;7.20;52.40;;;;;;5009883;28;20029;-65
2022/03/11 04:58:44;;;;;;;12.15;7.78;;;7.10;52.50;;;;;;5027893;28;20087;-66
2022/03/11 05:01:10;;;;;;;12.95;8.13;;;7.10;52.70;;;;;;5007890;28;20476;-65
2022/03/11 05:03:35;;;;;;;13.15;8.57;;;7.10;53.20;;;;;;5026986;28;20022;-66
2022/03/11 05:06:01;;;;;;;16.58;9.27;;;7.00;53.30;;;;;;5027664;28;20041;-66
2022/03/11 05:08:26;;;;;;;15.30;8.73;;;7.00;53.60;;;;;;5008084;28;20026;-66
2022/03/11 05:10:52;;;;;;;14.65;8.43;;;7.00;53.80;;;;;;5027758;28;20104;-65
2022/03/11 05:13:17;;;;;;;14.23;8.07;;;6.90;53.90;;;;;;5027465;28;20448;-64
2022/03/11 05:15:44;;;;;;;16.75;8.55;;;6.90;54.00;;;;;;5026632;28;20022;-64
2022/03/11 05:18:11;;;;;;;15.10;8.10;;;6.90;54.10;;;;;;5026009;28;20022;-64
2022/03/11 05:20:36;;;;;;;14.68;8.38;;;6.90;54.40;;;;;;5024616;28;20021;-64
2022/03/11 05:23:02;;;;;;;12.68;8.48;;;6.80;54.70;;;;;;5022628;28;20072;-66
2022/03/11 05:25:31;;;;;;;13.55;6.85;;;6.80;54.80;;;;;;5022129;28;20030;-66
2022/03/11 05:27:56;;;;;;;16.00;8.45;;;6.70;54.90;;;;;;5027421;28;20022;-65
2022/03/11 05:30:22;;;;;;;16.23;9.05;;;6.70;55.00;;;;;;5022177;28;20071;-66
2022/03/11 05:32:48;;;;;;;17.45;8.07;;;6.70;55.20;;;;;;5027727;28;20425;-65
2022/03/11 05:35:17;;;;;;;17.83;9.07;;;6.70;55.40;;;;;;5024952;28;20025;-65
2022/03/11 05:37:43;;;;;;;13.63;8.18;;;6.60;55.60;;;;;;5025794;28;20029;-66
2022/03/11 05:40:09;;;;;;;16.25;8.90;;;6.60;55.90;;;;;;5031135;28;20460;-65
2022/03/11 05:42:35;;;;;;;14.45;8.05;;;6.50;56.10;;;;;;5028305;28;20038;-65
2022/03/11 05:45:02;;;;;;;15.50;8.52;;;6.50;55.90;;;;;;5030993;28;20538;-66
2022/03/11 05:47:28;;;;;;;16.67;9.18;;;6.60;56.10;;;;;;5031066;28;20028;-65
2022/03/11 05:49:54;;;;;;;14.43;8.30;;;6.50;56.10;;;;;;5031669;28;20029;-65
2022/03/11 05:52:21;;;;;;;19.13;9.10;;;6.50;56.50;;;;;;5012637;28;20044;-65
2022/03/11 05:54:46;;;;;;;15.95;8.82;;;6.50;56.50;;;;;;5013107;28;20022;-66
2022/03/11 05:57:12;;;;;;;17.92;9.75;;;6.50;56.60;;;;;;5030872;28;20091;-66
2022/03/11 05:59:37;;;;;;;17.17;9.27;;;6.50;56.80;;;;;;5027707;28;20037;-65
2022/03/11 06:02:03;;;;;;;16.42;8.68;;;6.50;56.90;;;;;;5012970;28;20024;-65
2022/03/11 06:04:29;;;;;;;12.80;8.60;;;6.50;56.90;;;;;;5025308;28;20667;-66
2022/03/11 06:06:54;;;;;;;14.55;8.38;;;6.50;57.00;;;;;;5030616;28;20034;-66
2022/03/11 06:09:20;;;;;;;14.73;9.45;;;6.50;57.00;;;;;;5027600;28;20032;-65
2022/03/11 06:11:45;;;;;;;15.02;8.85;;;6.50;57.00;;;;;;5028082;28;20029;-66
2022/03/11 06:14:11;;;;;;;15.43;8.77;;;6.40;57.40;;;;;;5028095;28;20077;-66
2022/03/11 06:16:36;;;;;;;16.17;8.68;;;6.40;57.20;;;;;;5030221;28;20310;-66
2022/03/11 06:19:03;;;;;;;17.27;9.05;;;6.40;57.20;;;;;;5030400;28;20497;-65
2022/03/11 06:21:28;;;;;;;16.70;10.82;;;6.40;57.20;;;;;;5027533;28;20030;-66
2022/03/11 06:23:54;;;;;;;14.45;8.23;;;6.40;57.30;;;;;;5023517;28;20075;-66
2022/03/11 06:26:19;;;;;;;16.15;8.73;;;6.50;57.20;;;;;;5013618;28;20072;-66
2022/03/11 06:28:45;;;;;;;14.93;8.95;;;6.40;57.30;;;;;;5033981;28;20489;-66
2022/03/11 06:31:11;;;;;;;17.20;9.63;;;6.40;57.40;;;;;;5033811;28;20021;-65
2022/03/11 06:33:37;;;;;;;15.20;8.90;;;6.40;57.60;;;;;;5034064;28;20018;-66
2022/03/11 06:36:04;;;;;;;14.52;9.40;;;6.40;57.50;;;;;;5034069;28;20025;-65
2022/03/11 06:38:30;;;;;;;14.07;8.52;;;6.50;57.60;;;;;;5033850;28;20156;-65
2022/03/11 06:40:58;;;;;;;16.85;9.68;;;6.50;57.60;;;;;;5014625;28;20144;-66
2022/03/11 06:43:23;;;;;;;17.63;8.82;;;6.50;57.70;;;;;;5032352;28;20032;-65
2022/03/11 06:45:49;;;;;;;15.63;8.95;;;6.50;57.50;;;;;;5032534;28;20034;-65
2022/03/11 06:48:18;;;;;;;15.68;8.80;;;6.50;57.90;;;;;;5012905;28;20021;-66
2022/03/11 06:50:44;;;;;;;14.85;9.90;;;6.50;57.80;;;;;;5033122;28;20138;-64
2022/03/11 06:53:09;;;;;;;15.35;9.75;;;6.50;58.00;;;;;;5032058;28;20056;-66
2022/03/11 06:55:35;;;;;;;18.20;9.57;;;6.50;57.90;;;;;;5033363;28;20052;-66
2022/03/11 06:58:00;;;;;;;17.83;9.75;;;6.50;57.90;;;;;;5033577;28;20532;-65
2022/03/11 07:00:26;;;;;;;17.75;9.57;;;6.50;57.70;;;;;;5032799;28;20029;-65
2022/03/11 07:02:51;;;;;;;15.45;9.65;;;6.50;57.70;;;;;;5033676;28;20116;-66
2022/03/11 07:05:17;;;;;;;19.60;10.40;;;6.50;57.70;;;;;;5033302;28;20037;-65
2022/03/11 07:07:43;;;;;;;21.02;10.65;;;6.60;57.70;;;;;;5015651;28;20040;-65
2022/03/11 07:10:10;;;;;;;18.73;10.40;;;6.60;57.70;;;;;;5033522;28;20047;-65
2022/03/11 07:12:36;;;;;;;16.85;9.15;;;6.60;57.80;;;;;;5032573;28;20072;-66
2022/03/11 07:15:05;;;;;;;16.88;10.10;;;6.60;57.60;;;;;;5013720;28;20037;-66
2022/03/11 07:17:31;;;;;;;17.48;10.55;;;6.70;58.40;;;;;;5031402;28;20350;-66
2022/03/11 07:19:56;;;;;;;22.60;10.90;;;6.70;57.60;;;;;;5032415;28;20535;-65
2022/03/11 07:22:22;;;;;;;16.38;10.23;;;6.70;57.60;;;;;;5033273;28;20137;-65
2022/03/11 07:24:47;;;;;;;18.77;9.95;;;6.80;57.30;;;;;;5031904;28;20045;-66
2022/03/11 07:27:13;;;;;;;21.45;10.23;;;6.80;57.70;;;;;;5031915;28;20025;-66
2022/03/11 07:29:39;;;;;;;17.50;10.60;;;6.80;57.40;;;;;;5031454;28;20032;-65
2022/03/11 07:32:05;;;;;;;16.38;10.48;;;6.90;57.10;;;;;;5032970;28;20108;-65
2022/03/11 07:34:31;;;;;;;16.23;10.25;;;6.90;57.70;;;;;;5015367;28;20036;-65
2022/03/11 07:36:56;;;;;;;18.13;10.75;;;6.90;57.10;;;;;;5026934;28;20286;-66
2022/03/11 07:39:22;;;;;;;17.35;10.93;;;7.00;57.30;;;;;;5021513;28;20033;-65
2022/03/11 07:41:50;;;;;;;18.17;10.25;;;7.00;57.40;;;;;;5031246;28;20033;-66
2022/03/11 07:44:16;;;;;;;17.35;10.85;;;7.00;57.30;;;;;;5029332;28;20029;-66
2022/03/11 07:46:43;;;;;;;18.98;11.18;;;7.10;56.80;;;;;;5004555;28;20477;-66
2022/03/11 07:49:09;;;;;;;19.15;11.02;;;7.10;56.90;;;;;;5029865;28;20032;-66
2022/03/11 07:51:34;;;;;;;21.58;10.50;;;7.10;56.90;;;;;;5030375;28;20049;-65
2022/03/11 07:54:00;;;;;;;18.38;11.55;;;7.20;57.10;;;;;;5030903;28;20022;-65
2022/03/11 07:56:25;;;;;;;22.70;11.02;;;7.20;56.70;;;;;;5031009;28;20025;-66
2022/03/11 07:58:54;;;;;;;18.77;11.77;;;7.20;56.30;;;;;;5030371;28;20025;-66
2022/03/11 08:01:19;;;;;;;18.80;11.60;;;7.30;56.70;;;;;;5030172;28;20022;-66
2022/03/11 08:03:45;;;;;;;17.80;11.43;;;7.30;56.60;;;;;;5030775;28;20022;-65
2022/03/11 08:06:10;;;;;;;17.45;11.15;;;7.30;56.60;;;;;;5030501;28;20473;-65
2022/03/11 08:08:37;;;;;;;20.17;11.98;;;7.40;56.40;;;;;;5030666;28;20025;-66
2022/03/11 08:11:06;;;;;;;20.63;12.43;;;7.40;56.30;;;;;;5030675;28;20093;-66
2022/03/11 08:13:33;;;;;;;20.73;12.10;;;7.50;56.20;;;;;;5031759;28;20021;-65
2022/03/11 08:15:59;;;;;;;20.30;12.75;;;7.50;56.00;;;;;;5014316;28;20370;-65
2022/03/11 08:18:25;;;;;;;20.02;12.32;;;7.60;56.40;;;;;;5032391;28;20104;-64
2022/03/11 08:20:50;;;;;;;20.45;12.52;;;7.60;56.50;;;;;;5031711;28;20033;-64
2022/03/11 08:23:16;;;;;;;20.92;12.48;;;7.60;55.80;;;;;;5014245;28;20056;-64
2022/03/11 08:25:42;;;;;;;18.63;11.95;;;7.70;55.90;;;;;;5010233;28;20174;-65
2022/03/11 08:28:10;;;;;;;25.45;13.20;;;7.70;55.90;;;;;;5012297;28;20429;-65
2022/03/11 08:30:37;;;;;;;19.20;11.55;;;7.80;55.50;;;;;;5012243;28;20054;-66
2022/03/11 08:33:04;;;;;;;20.08;12.27;;;7.80;55.80;;;;;;5012263;28;20042;-64
2022/03/11 08:35:30;;;;;;;22.05;12.75;;;7.90;55.80;;;;;;5012116;28;20057;-65
2022/03/11 08:37:56;;;;;;;23.90;13.13;;;8.00;55.20;;;;;;5014857;28;20064;-64
2022/03/11 08:40:23;;;;;;;22.30;12.65;;;7.90;55.30;;;;;;5031608;28;20021;-66
2022/03/11 08:42:53;;;;;;;17.95;11.82;;;8.00;55.50;;;;;;5031868;28;20392;-65
2022/03/11 08:45:22;;;;;;;20.20;11.23;;;8.10;56.20;;;;;;5031697;28;20083;-65
2022/03/11 08:47:52;;;;;;;19.02;11.88;;;8.30;55.90;;;;;;5025942;28;20032;-65
2022/03/11 08:50:19;;;;;;;22.10;12.95;;;8.30;54.90;;;;;;5025422;28;20022;-65
2022/03/11 08:52:45;;;;;;;22.45;13.48;;;8.40;54.70;;;;;;5027475;28;20041;-65
2022/03/11 08:55:12;;;;;;;23.60;14.10;;;8.50;54.80;;;;;;5029854;28;20553;-66
2022/03/11 08:57:38;;;;;;;20.17;13.10;;;8.50;54.40;;;;;;5031740;28;20261;-65
2022/03/11 09:00:12;;;;;;;19.98;13.05;;;8.60;54.40;;;;;;5030228;28;20025;-65
2022/03/11 09:02:37;;;;;;;18.70;12.38;;;8.60;54.20;;;;;;5030418;28;20029;-65
2022/03/11 09:05:04;;;;;;;23.00;13.35;;;8.70;54.50;;;;;;5031575;28;20029;-64
2022/03/11 09:07:30;;;;;;;18.98;13.27;;;8.70;54.30;;;;;;5030196;28;20029;-65
2022/03/11 09:09:56;;;;;;;28.67;15.35;;;8.70;54.50;;;;;;5030021;28;20395;-66
2022/03/11 09:12:22;;;;;;;22.25;12.52;;;8.80;54.60;;;;;;5033053;28;20071;-66
2022/03/11 09:14:47;;;;;;;25.38;13.55;;;8.90;54.10;;;;;;5033728;28;20026;-65
2022/03/11 09:17:13;;;;;;;24.92;13.05;;;9.00;54.20;;;;;;5033500;28;20051;-65
2022/03/11 09:19:38;;;;;;;24.90;14.90;;;9.00;54.50;;;;;;5033592;28;20112;-66
2022/03/11 09:22:05;;;;;;;20.98;13.85;;;9.00;54.30;;;;;;5033521;28;20038;-66
2022/03/11 09:24:31;;;;;;;21.65;13.40;;;9.00;54.00;;;;;;5033398;28;20502;-65
2022/03/11 09:26:58;;;;;;;24.35;14.43;;;9.00;54.50;;;;;;5035021;28;20033;-65
2022/03/11 09:29:25;;;;;;;22.17;14.27;;;9.10;54.30;;;;;;5035125;28;20024;-66
2022/03/11 09:31:50;;;;;;;23.50;13.25;;;9.20;54.40;;;;;;5035098;28;20100;-66
2022/03/11 09:34:16;;;;;;;23.40;14.50;;;9.20;53.90;;;;;;5035080;28;20637;-64
2022/03/11 09:36:42;;;;;;;22.60;14.18;;;9.20;53.50;;;;;;5034793;28;20033;-66
2022/03/11 09:39:07;;;;;;;26.10;13.98;;;9.30;53.50;;;;;;5034848;28;20029;-65
2022/03/11 09:41:33;;;;;;;21.25;13.98;;;9.40;54.50;;;;;;5034822;28;20035;-66
2022/03/11 09:44:01;;;;;;;21.33;13.70;;;9.40;53.70;;;;;;5034844;28;20045;-65
2022/03/11 09:46:27;;;;;;;23.10;14.07;;;9.60;53.60;;;;;;5034757;28;20393;-65
2022/03/11 09:48:53;;;;;;;22.52;14.52;;;9.60;53.40;;;;;;5034686;28;20527;-65
2022/03/11 09:51:19;;;;;;;23.45;14.05;;;9.70;53.50;;;;;;5034133;28;20394;-65
2022/03/11 09:53:45;;;;;;;27.65;15.38;;;9.70;53.60;;;;;;5034938;28;20034;-65
2022/03/11 09:56:11;;;;;;;21.80;14.40;;;9.80;53.50;;;;;;5016854;28;20022;-65
2022/03/11 09:58:36;;;;;;;24.30;14.27;;;9.90;53.40;;;;;;5034593;28;20033;-65
2022/03/11 10:01:04;;;;;;;31.35;16.02;;;10.10;53.50;;;;;;5034296;28;20037;-65
2022/03/11 10:03:30;;;;;;;21.27;14.02;;;10.20;52.80;;;;;;5016908;28;20025;-65
2022/03/11 10:05:56;;;;;;;20.50;14.02;;;10.30;52.20;;;;;;5032667;28;20488;-65
2022/03/11 10:08:34;;;;;;;25.25;14.90;;;10.40;52.90;;;;;;5024688;28;20439;-64
2022/03/11 10:11:17;;;;;;;26.75;14.60;;;10.50;52.30;;;;;;5031752;28;20029;-64
2022/03/11 10:13:43;;;;;;;26.33;15.10;;;10.60;52.30;;;;;;5020304;28;20080;-64
2022/03/11 10:16:19;;;;;;;24.40;14.88;;;10.60;52.20;;;;;;5032632;28;20037;-64
2022/03/11 10:19:03;;;;;;;23.10;14.65;;;10.70;51.70;;;;;;5032581;28;20116;-64
2022/03/11 10:21:46;;;;;;;20.98;15.00;;;10.80;52.00;;;;;;5032727;28;20021;-64
2022/03/11 10:24:18;;;;;;;23.80;15.25;;;11.00;51.90;;;;;;5029812;28;20076;-64
2022/03/11 10:26:46;;;;;;;22.13;15.32;;;11.20;51.50;;;;;;5032286;28;20081;-64
2022/03/11 10:29:23;;;;;;;22.33;15.15;;;11.20;51.20;;;;;;5032385;28;20049;-65
2022/03/11 10:31:51;;;;;;;23.75;15.52;;;11.50;51.10;;;;;;5029852;28;20025;-64
2022/03/11 10:34:22;;;;;;;28.27;15.48;;;11.70;50.10;;;;;;5032352;28;20381;-66
2022/03/11 10:36:50;;;;;;;23.65;14.68;;;11.80;49.80;;;;;;5019798;28;20032;-65
2022/03/11 10:39:21;;;;;;;20.70;14.90;;;11.90;50.20;;;;;;5032193;28;20021;-66
2022/03/11 10:41:49;;;;;;;22.42;14.18;;;12.20;50.00;;;;;;5031967;28;20069;-65
2022/03/11 10:44:18;;;;;;;23.60;15.55;;;12.70;48.80;;;;;;5032123;28;20064;-66
2022/03/11 10:46:43;;;;;;;23.40;15.20;;;14.20;47.10;;;;;;5031891;28;20094;-65
2022/03/11 10:49:09;;;;;;;21.10;13.75;;;16.20;43.10;;;;;;5031829;28;20057;-66
2022/03/11 10:51:38;;;;;;;21.02;13.85;;;17.70;41.50;;;;;;5031700;28;20046;-65
2022/03/11 10:54:10;;;;;;;24.35;14.77;;;19.70;38.20;;;;;;5032252;28;20108;-66
2022/03/11 10:56:40;;;;;;;22.13;14.13;;;21.10;35.00;;;;;;5033571;28;20033;-66
2022/03/11 10:59:11;;;;;;;19.35;15.13;;;21.40;34.30;;;;;;5033449;28;20067;-66
2022/03/11 11:01:40;;;;;;;17.73;14.45;;;22.00;32.90;;;;;;5033379;28;20045;-66
2022/03/11 11:04:10;;;;;;;22.08;14.57;;;21.40;33.70;;;;;;5033360;28;20051;-66
2022/03/11 11:06:36;;;;;;;;;;;21.50;33.70;;;;;;5033717;28;20033;-66
2022/03/11 11:09:03;;;;;;;20.00;14.82;;;21.40;33.30;;;;;;5033162;28;19905;-65
2022/03/11 11:11:30;;;;;;;20.67;15.10;;;21.80;33.20;;;;;;5033125;28;20059;-66
2022/03/11 11:13:56;;;;;;;16.25;12.30;;;22.70;32.40;;;;;;5033111;28;20057;-65
2022/03/11 11:16:28;;;;;;;18.90;14.23;;;24.30;32.20;;;;;;5031277;28;20112;-66
2022/03/11 11:18:58;;;;;;;18.92;14.00;;;25.10;29.90;;;;;;5031246;28;20021;-65
2022/03/11 11:21:25;;;;;;;18.67;14.38;;;25.10;29.20;;;;;;5031824;28;20029;-66
2022/03/11 11:23:55;;;;;;;16.98;13.13;;;24.40;29.60;;;;;;5024601;28;20024;-66
2022/03/11 11:26:25;;;;;;;19.20;15.07;;;24.00;30.50;;;;;;5027692;28;20029;-66
2022/03/11 11:29:00;;;;;;;18.98;14.32;;;24.80;29.30;;;;;;5031108;28;20025;-65
2022/03/11 11:31:27;;;;;;;17.25;12.82;;;24.20;30.00;;;;;;5028509;28;20481;-67
2022/03/11 11:33:52;;;;;;;19.42;15.27;;;24.20;30.20;;;;;;5030609;28;20087;-66
2022/03/11 11:36:40;;;;;;;13.82;11.57;;;24.90;29.30;;;;;;5030648;28;20166;-66
2022/03/11 11:39:08;;;;;;;14.80;12.02;;;25.90;29.90;;;;;;5028463;28;20465;-66
2022/03/11 11:41:35;;;;;;;23.43;13.47;;;28.00;28.70;;;;;;5031042;28;20021;-67
2022/03/11 11:44:05;;;;;;;24.20;14.25;;;29.20;27.60;;;;;;5028492;28;20018;-67
2022/03/11 11:46:33;;;;;;;17.50;13.68;;;28.90;26.60;;;;;;5027879;28;20539;-67
2022/03/11 11:49:00;;;;;;;16.48;13.57;;;28.20;26.70;;;;;;5031663;28;20474;-66
2022/03/11 11:51:32;;;;;;;17.25;14.57;;;26.00;28.20;;;;;;5032213;28;20033;-66
2022/03/11 11:54:08;;;;;;;17.77;12.70;;;24.80;28.80;;;;;;5032489;28;20079;-66
2022/03/11 11:56:37;;;;;;;17.98;14.85;;;24.80;29.80;;;;;;5032433;28;20033;-66
2022/03/11 11:59:07;;;;;;;;;;;25.60;28.90;;;;;;5032623;28;20017;-66
2022/03/11 12:01:39;;;;;;;18.15;16.23;;;25.70;28.50;;;;;;5032690;28;19905;-66
2022/03/11 12:04:28;;;;;;;21.27;15.50;;;25.50;28.50;;;;;;5032285;28;20061;-66
2022/03/11 12:07:03;;;;;;;;;;;24.90;28.80;;;;;;5031348;28;20091;-66
2022/03/11 12:09:38;;;;;;;16.55;14.00;;;25.00;29.30;;;;;;5027469;28;19909;-67
2022/03/11 12:12:04;;;;;;;17.70;15.80;;;25.20;28.80;;;;;;5028595;28;20025;-66
2022/03/11 12:14:30;;;;;;;22.23;15.45;;;25.10;28.80;;;;;;5029519;28;20048;-67
2022/03/11 12:17:05;;;;;;;18.52;15.43;;;25.70;28.90;;;;;;5015698;28;20485;-67
2022/03/11 12:19:44;;;;;;;16.55;14.18;;;26.40;28.90;;;;;;5009177;28;20033;-67
2022/03/11 12:22:36;;;;;;;18.23;15.25;;;28.30;27.90;;;;;;5028172;28;20029;-67
2022/03/11 12:25:05;;;;;;;19.35;14.50;;;27.80;27.20;;;;;;5021761;28;20033;-67
2022/03/11 12:27:58;;;;;;;20.90;17.33;;;27.20;27.30;;;;;;5027565;28;20476;-67
2022/03/11 12:30:23;;;;;;;15.45;12.93;;;26.50;27.50;;;;;;5027266;28;20037;-67
2022/03/11 12:32:51;;;;;;;17.38;15.57;;;26.50;28.30;;;;;;5027524;28;20044;-67
2022/03/11 12:35:23;;;;;;;16.63;13.95;;;27.30;27.60;;;;;;5028914;28;20014;-67
2022/03/11 12:37:48;;;;;;;18.00;15.73;;;27.20;27.80;;;;;;5027902;28;20026;-67
2022/03/11 12:40:15;;;;;;;23.48;16.15;;;26.80;27.80;;;;;;5029978;28;20390;-67